sensor_id;sensor_type;location;lat;lon;timestamp;temperature;humidity
19256;DHT22;9762;52.490;13.410;2023-11-19T00:02:02;10.80;91.60
19256;DHT22;9762;52.490;13.410;2023-11-19T00:04:28;10.80;91.60
19256;DHT22;9762;52.490;13.410;2023-11-19T00:06:53;10.90;91.80
19256;DHT22;9762;52.490;13.410;2023-11-19T00:09:19;10.90;91.40
19256;DHT22;9762;52.490;13.410;2023-11-19T00:11:44;10.90;91.30
19256;DHT22;9762;52.490;13.410;2023-11-19T00:14:10;10.90;91.50
19256;DHT22;9762;52.490;13.410;2023-11-19T00:16:36;10.80;91.10
19256;DHT22;9762;52.490;13.410;2023-11-19T00:19:01;10.80;91.10
19256;DHT22;9762;52.490;13.410;2023-11-19T00:21:27;10.80;91.10
19256;DHT22;9762;52.490;13.410;2023-11-19T00:23:54;10.80;91.20
19256;DHT22;9762;52.490;13.410;2023-11-19T00:26:20;10.80;91.00
19256;DHT22;9762;52.490;13.410;2023-11-19T00:28:45;10.70;90.70
19256;DHT22;9762;52.490;13.410;2023-11-19T00:31:13;10.70;90.70
19256;DHT22;9762;52.490;13.410;2023-11-19T00:33:39;10.70;90.80
19256;DHT22;9762;52.490;13.410;2023-11-19T00:36:05;10.70;90.80
19256;DHT22;9762;52.490;13.410;2023-11-19T00:38:31;10.70;90.80
19256;DHT22;9762;52.490;13.410;2023-11-19T00:40:57;10.70;90.90
19256;DHT22;9762;52.490;13.410;2023-11-19T00:43:22;10.70;90.90
19256;DHT22;9762;52.490;13.410;2023-11-19T00:45:48;10.70;90.90
19256;DHT22;9762;52.490;13.410;2023-11-19T00:48:16;10.70;91.20
19256;DHT22;9762;52.490;13.410;2023-11-19T00:50:42;10.70;91.10
19256;DHT22;9762;52.490;13.410;2023-11-19T00:53:09;10.80;91.10
19256;DHT22;9762;52.490;13.410;2023-11-19T00:55:35;10.70;90.80
19256;DHT22;9762;52.490;13.410;2023-11-19T00:58:01;10.80;91.00
19256;DHT22;9762;52.490;13.410;2023-11-19T01:00:26;10.70;90.70
19256;DHT22;9762;52.490;13.410;2023-11-19T01:02:53;10.70;90.90
19256;DHT22;9762;52.490;13.410;2023-11-19T01:05:19;10.70;91.00
19256;DHT22;9762;52.490;13.410;2023-11-19T01:07:48;10.60;90.50
19256;DHT22;9762;52.490;13.410;2023-11-19T01:10:13;10.60;90.90
19256;DHT22;9762;52.490;13.410;2023-11-19T01:12:41;10.60;91.00
19256;DHT22;9762;52.490;13.410;2023-11-19T01:15:07;10.60;90.90
19256;DHT22;9762;52.490;13.410;2023-11-19T01:17:33;10.60;90.70
19256;DHT22;9762;52.490;13.410;2023-11-19T01:19:59;10.60;91.00
19256;DHT22;9762;52.490;13.410;2023-11-19T01:22:24;10.60;90.80
19256;DHT22;9762;52.490;13.410;2023-11-19T01:24:50;10.60;90.60
19256;DHT22;9762;52.490;13.410;2023-11-19T01:27:17;10.60;90.70
19256;DHT22;9762;52.490;13.410;2023-11-19T01:29:43;10.60;90.90
19256;DHT22;9762;52.490;13.410;2023-11-19T01:32:08;10.60;90.60
19256;DHT22;9762;52.490;13.410;2023-11-19T01:34:34;10.60;90.80
19256;DHT22;9762;52.490;13.410;2023-11-19T01:37:01;10.50;90.80
19256;DHT22;9762;52.490;13.410;2023-11-19T01:39:26;10.50;91.00
19256;DHT22;9762;52.490;13.410;2023-11-19T01:41:52;10.60;90.90
19256;DHT22;9762;52.490;13.410;2023-11-19T01:44:19;10.60;90.70
19256;DHT22;9762;52.490;13.410;2023-11-19T01:46:46;10.60;91.20
19256;DHT22;9762;52.490;13.410;2023-11-19T01:49:15;10.60;90.60
19256;DHT22;9762;52.490;13.410;2023-11-19T01:51:43;10.60;90.90
19256;DHT22;9762;52.490;13.410;2023-11-19T01:54:09;10.60;90.80
19256;DHT22;9762;52.490;13.410;2023-11-19T01:56:36;10.60;90.70
19256;DHT22;9762;52.490;13.410;2023-11-19T01:59:03;10.60;91.00
19256;DHT22;9762;52.490;13.410;2023-11-19T02:01:29;10.60;90.90
19256;DHT22;9762;52.490;13.410;2023-11-19T02:03:55;10.60;91.00
19256;DHT22;9762;52.490;13.410;2023-11-19T02:06:21;10.60;91.10
19256;DHT22;9762;52.490;13.410;2023-11-19T02:08:47;10.60;91.40
19256;DHT22;9762;52.490;13.410;2023-11-19T02:11:13;10.70;91.60
19256;DHT22;9762;52.490;13.410;2023-11-19T02:13:39;10.60;91.50
19256;DHT22;9762;52.490;13.410;2023-11-19T02:16:06;10.70;91.50
19256;DHT22;9762;52.490;13.410;2023-11-19T02:18:34;10.60;91.40
19256;DHT22;9762;52.490;13.410;2023-11-19T02:21:00;10.70;91.60
19256;DHT22;9762;52.490;13.410;2023-11-19T02:23:28;10.70;91.60
19256;DHT22;9762;52.490;13.410;2023-11-19T02:28:31;10.60;91.10
19256;DHT22;9762;52.490;13.410;2023-11-19T02:30:58;10.50;91.30
19256;DHT22;9762;52.490;13.410;2023-11-19T02:33:24;10.60;91.50
19256;DHT22;9762;52.490;13.410;2023-11-19T02:35:50;10.60;91.60
19256;DHT22;9762;52.490;13.410;2023-11-19T02:38:16;10.70;91.70
19256;DHT22;9762;52.490;13.410;2023-11-19T02:40:42;10.60;91.60
19256;DHT22;9762;52.490;13.410;2023-11-19T02:43:08;10.70;91.70
19256;DHT22;9762;52.490;13.410;2023-11-19T02:45:34;10.70;91.60
19256;DHT22;9762;52.490;13.410;2023-11-19T02:47:59;10.70;91.70
19256;DHT22;9762;52.490;13.410;2023-11-19T02:50:27;10.70;91.60
19256;DHT22;9762;52.490;13.410;2023-11-19T02:52:54;10.70;91.60
19256;DHT22;9762;52.490;13.410;2023-11-19T02:55:22;10.60;91.50
19256;DHT22;9762;52.490;13.410;2023-11-19T02:57:49;10.70;91.90
19256;DHT22;9762;52.490;13.410;2023-11-19T03:00:15;10.70;91.80
19256;DHT22;9762;52.490;13.410;2023-11-19T03:02:41;10.70;91.60
19256;DHT22;9762;52.490;13.410;2023-11-19T03:05:12;10.70;91.70
19256;DHT22;9762;52.490;13.410;2023-11-19T03:07:43;10.60;91.50
19256;DHT22;9762;52.490;13.410;2023-11-19T03:10:12;10.50;91.60
19256;DHT22;9762;52.490;13.410;2023-11-19T03:12:41;10.50;91.90
19256;DHT22;9762;52.490;13.410;2023-11-19T03:15:08;10.50;91.90
19256;DHT22;9762;52.490;13.410;2023-11-19T03:17:43;10.50;91.70
19256;DHT22;9762;52.490;13.410;2023-11-19T03:20:10;10.50;91.70
19256;DHT22;9762;52.490;13.410;2023-11-19T03:22:39;10.50;91.70
19256;DHT22;9762;52.490;13.410;2023-11-19T03:25:07;10.50;91.90
19256;DHT22;9762;52.490;13.410;2023-11-19T03:27:35;10.50;91.80
19256;DHT22;9762;52.490;13.410;2023-11-19T03:30:02;10.50;91.90
19256;DHT22;9762;52.490;13.410;2023-11-19T03:32:30;10.50;91.90
19256;DHT22;9762;52.490;13.410;2023-11-19T03:34:56;10.40;91.90
19256;DHT22;9762;52.490;13.410;2023-11-19T03:37:23;10.40;92.20
19256;DHT22;9762;52.490;13.410;2023-11-19T03:39:49;10.20;92.60
19256;DHT22;9762;52.490;13.410;2023-11-19T03:42:15;10.30;92.90
19256;DHT22;9762;52.490;13.410;2023-11-19T03:44:40;10.30;93.10
19256;DHT22;9762;52.490;13.410;2023-11-19T03:47:06;10.40;93.40
19256;DHT22;9762;52.490;13.410;2023-11-19T03:49:31;10.30;93.80
19256;DHT22;9762;52.490;13.410;2023-11-19T03:51:57;10.40;93.90
19256;DHT22;9762;52.490;13.410;2023-11-19T03:54:23;10.40;94.10
19256;DHT22;9762;52.490;13.410;2023-11-19T03:56:49;10.50;94.20
19256;DHT22;9762;52.490;13.410;2023-11-19T03:59:14;10.60;94.30
19256;DHT22;9762;52.490;13.410;2023-11-19T04:01:41;10.60;94.30
19256;DHT22;9762;52.490;13.410;2023-11-19T04:04:06;10.60;94.30
19256;DHT22;9762;52.490;13.410;2023-11-19T04:06:32;10.60;94.40
19256;DHT22;9762;52.490;13.410;2023-11-19T04:08:58;10.60;94.40
19256;DHT22;9762;52.490;13.410;2023-11-19T04:11:23;10.60;94.60
19256;DHT22;9762;52.490;13.410;2023-11-19T04:13:49;10.60;94.50
19256;DHT22;9762;52.490;13.410;2023-11-19T04:16:15;10.60;94.50
19256;DHT22;9762;52.490;13.410;2023-11-19T04:18:40;10.60;94.60
19256;DHT22;9762;52.490;13.410;2023-11-19T04:21:07;10.60;94.60
19256;DHT22;9762;52.490;13.410;2023-11-19T04:23:33;10.50;94.50
19256;DHT22;9762;52.490;13.410;2023-11-19T04:26:01;10.50;94.80
19256;DHT22;9762;52.490;13.410;2023-11-19T04:28:26;10.50;94.90
19256;DHT22;9762;52.490;13.410;2023-11-19T04:30:52;10.40;95.10
19256;DHT22;9762;52.490;13.410;2023-11-19T04:33:18;10.50;95.20
19256;DHT22;9762;52.490;13.410;2023-11-19T04:35:44;10.40;95.20
19256;DHT22;9762;52.490;13.410;2023-11-19T04:38:10;10.50;95.20
19256;DHT22;9762;52.490;13.410;2023-11-19T04:40:36;10.50;95.20
19256;DHT22;9762;52.490;13.410;2023-11-19T04:43:02;10.50;95.40
19256;DHT22;9762;52.490;13.410;2023-11-19T04:45:27;10.60;95.30
19256;DHT22;9762;52.490;13.410;2023-11-19T04:47:53;10.60;95.10
19256;DHT22;9762;52.490;13.410;2023-11-19T04:50:19;10.60;95.00
19256;DHT22;9762;52.490;13.410;2023-11-19T04:52:44;10.60;95.20
19256;DHT22;9762;52.490;13.410;2023-11-19T04:55:12;10.60;95.20
19256;DHT22;9762;52.490;13.410;2023-11-19T04:57:37;10.60;95.20
19256;DHT22;9762;52.490;13.410;2023-11-19T05:00:04;10.70;95.10
19256;DHT22;9762;52.490;13.410;2023-11-19T05:02:30;10.70;95.30
19256;DHT22;9762;52.490;13.410;2023-11-19T05:04:56;10.60;95.30
19256;DHT22;9762;52.490;13.410;2023-11-19T05:07:22;10.60;95.40
19256;DHT22;9762;52.490;13.410;2023-11-19T05:09:47;10.60;95.60
19256;DHT22;9762;52.490;13.410;2023-11-19T05:12:13;10.70;95.70
19256;DHT22;9762;52.490;13.410;2023-11-19T05:14:38;10.70;95.60
19256;DHT22;9762;52.490;13.410;2023-11-19T05:17:04;10.60;95.70
19256;DHT22;9762;52.490;13.410;2023-11-19T05:19:30;10.60;95.70
19256;DHT22;9762;52.490;13.410;2023-11-19T05:21:55;10.60;96.00
19256;DHT22;9762;52.490;13.410;2023-11-19T05:24:21;10.50;96.00
19256;DHT22;9762;52.490;13.410;2023-11-19T05:26:47;10.40;96.20
19256;DHT22;9762;52.490;13.410;2023-11-19T05:29:12;10.40;96.50
19256;DHT22;9762;52.490;13.410;2023-11-19T05:31:38;10.40;96.40
19256;DHT22;9762;52.490;13.410;2023-11-19T05:34:04;10.30;96.50
19256;DHT22;9762;52.490;13.410;2023-11-19T05:36:29;10.30;96.80
19256;DHT22;9762;52.490;13.410;2023-11-19T05:38:55;10.30;97.00
19256;DHT22;9762;52.490;13.410;2023-11-19T05:41:21;10.30;97.00
19256;DHT22;9762;52.490;13.410;2023-11-19T05:43:46;10.20;97.10
19256;DHT22;9762;52.490;13.410;2023-11-19T05:46:12;10.20;97.10
19256;DHT22;9762;52.490;13.410;2023-11-19T05:48:38;10.10;97.30
19256;DHT22;9762;52.490;13.410;2023-11-19T05:51:05;10.20;97.40
19256;DHT22;9762;52.490;13.410;2023-11-19T05:53:31;10.20;97.40
19256;DHT22;9762;52.490;13.410;2023-11-19T05:55:57;10.20;97.40
19256;DHT22;9762;52.490;13.410;2023-11-19T05:58:27;10.20;97.50
19256;DHT22;9762;52.490;13.410;2023-11-19T06:00:56;10.10;97.60
19256;DHT22;9762;52.490;13.410;2023-11-19T06:03:22;10.20;97.50
19256;DHT22;9762;52.490;13.410;2023-11-19T06:05:52;10.10;97.50
19256;DHT22;9762;52.490;13.410;2023-11-19T06:08:18;10.00;97.80
19256;DHT22;9762;52.490;13.410;2023-11-19T06:10:45;10.00;98.00
19256;DHT22;9762;52.490;13.410;2023-11-19T06:13:16;10.00;98.30
19256;DHT22;9762;52.490;13.410;2023-11-19T06:15:42;10.00;98.30
19256;DHT22;9762;52.490;13.410;2023-11-19T06:18:08;10.00;98.30
19256;DHT22;9762;52.490;13.410;2023-11-19T06:20:34;10.10;98.30
19256;DHT22;9762;52.490;13.410;2023-11-19T06:23:00;10.10;98.30
19256;DHT22;9762;52.490;13.410;2023-11-19T06:25:26;10.10;98.30
19256;DHT22;9762;52.490;13.410;2023-11-19T06:27:52;10.20;98.40
19256;DHT22;9762;52.490;13.410;2023-11-19T06:30:18;10.10;98.20
19256;DHT22;9762;52.490;13.410;2023-11-19T06:32:44;10.20;98.30
19256;DHT22;9762;52.490;13.410;2023-11-19T06:35:10;10.10;98.30
19256;DHT22;9762;52.490;13.410;2023-11-19T06:37:38;10.10;98.40
19256;DHT22;9762;52.490;13.410;2023-11-19T06:40:04;10.20;98.50
19256;DHT22;9762;52.490;13.410;2023-11-19T06:42:30;10.20;98.40
19256;DHT22;9762;52.490;13.410;2023-11-19T06:44:56;10.20;98.40
19256;DHT22;9762;52.490;13.410;2023-11-19T06:47:26;10.20;98.40
19256;DHT22;9762;52.490;13.410;2023-11-19T06:49:53;10.30;98.30
19256;DHT22;9762;52.490;13.410;2023-11-19T06:52:18;10.30;98.20
19256;DHT22;9762;52.490;13.410;2023-11-19T06:54:44;10.40;98.40
19256;DHT22;9762;52.490;13.410;2023-11-19T06:57:11;10.30;98.40
19256;DHT22;9762;52.490;13.410;2023-11-19T06:59:37;10.30;98.40
19256;DHT22;9762;52.490;13.410;2023-11-19T07:02:03;10.30;98.40
19256;DHT22;9762;52.490;13.410;2023-11-19T07:04:30;10.30;98.60
19256;DHT22;9762;52.490;13.410;2023-11-19T07:06:56;10.30;98.60
19256;DHT22;9762;52.490;13.410;2023-11-19T07:09:21;10.40;98.70
19256;DHT22;9762;52.490;13.410;2023-11-19T07:11:49;10.50;98.70
19256;DHT22;9762;52.490;13.410;2023-11-19T07:14:17;10.60;98.60
19256;DHT22;9762;52.490;13.410;2023-11-19T07:16:43;10.80;98.50
19256;DHT22;9762;52.490;13.410;2023-11-19T07:19:09;10.80;98.00
19256;DHT22;9762;52.490;13.410;2023-11-19T07:21:35;10.80;98.00
19256;DHT22;9762;52.490;13.410;2023-11-19T07:24:04;10.80;98.00
19256;DHT22;9762;52.490;13.410;2023-11-19T07:26:30;10.90;98.20
19256;DHT22;9762;52.490;13.410;2023-11-19T07:28:56;11.00;97.90
19256;DHT22;9762;52.490;13.410;2023-11-19T07:31:21;11.10;97.60
19256;DHT22;9762;52.490;13.410;2023-11-19T07:33:47;11.20;97.60
19256;DHT22;9762;52.490;13.410;2023-11-19T07:36:15;11.20;97.40
19256;DHT22;9762;52.490;13.410;2023-11-19T07:38:41;11.30;97.40
19256;DHT22;9762;52.490;13.410;2023-11-19T07:41:07;11.40;97.20
19256;DHT22;9762;52.490;13.410;2023-11-19T07:43:39;11.40;97.20
19256;DHT22;9762;52.490;13.410;2023-11-19T07:46:05;11.50;97.20
19256;DHT22;9762;52.490;13.410;2023-11-19T07:48:33;11.50;96.90
19256;DHT22;9762;52.490;13.410;2023-11-19T07:51:00;11.50;97.00
19256;DHT22;9762;52.490;13.410;2023-11-19T07:53:26;11.60;97.10
19256;DHT22;9762;52.490;13.410;2023-11-19T07:55:52;11.60;97.10
19256;DHT22;9762;52.490;13.410;2023-11-19T07:58:17;11.60;97.00
19256;DHT22;9762;52.490;13.410;2023-11-19T08:00:43;11.70;97.10
19256;DHT22;9762;52.490;13.410;2023-11-19T08:03:09;11.70;96.90
19256;DHT22;9762;52.490;13.410;2023-11-19T08:05:34;11.80;97.00
19256;DHT22;9762;52.490;13.410;2023-11-19T08:08:00;11.80;96.90
19256;DHT22;9762;52.490;13.410;2023-11-19T08:10:26;11.90;96.90
19256;DHT22;9762;52.490;13.410;2023-11-19T08:12:52;11.90;97.30
19256;DHT22;9762;52.490;13.410;2023-11-19T08:15:17;11.90;96.90
19256;DHT22;9762;52.490;13.410;2023-11-19T08:17:43;11.90;96.80
19256;DHT22;9762;52.490;13.410;2023-11-19T08:20:09;12.00;97.40
19256;DHT22;9762;52.490;13.410;2023-11-19T08:22:38;12.10;97.00
19256;DHT22;9762;52.490;13.410;2023-11-19T08:25:07;12.10;97.00
19256;DHT22;9762;52.490;13.410;2023-11-19T08:27:33;12.10;97.00
19256;DHT22;9762;52.490;13.410;2023-11-19T08:29:59;12.20;97.20
19256;DHT22;9762;52.490;13.410;2023-11-19T08:32:25;12.20;97.10
19256;DHT22;9762;52.490;13.410;2023-11-19T08:34:51;12.30;97.10
19256;DHT22;9762;52.490;13.410;2023-11-19T08:37:17;12.30;97.10
19256;DHT22;9762;52.490;13.410;2023-11-19T08:39:49;12.40;97.20
19256;DHT22;9762;52.490;13.410;2023-11-19T08:42:16;12.40;97.20
19256;DHT22;9762;52.490;13.410;2023-11-19T08:44:42;12.50;97.20
19256;DHT22;9762;52.490;13.410;2023-11-19T08:47:10;12.50;97.20
19256;DHT22;9762;52.490;13.410;2023-11-19T08:49:36;12.50;97.20
19256;DHT22;9762;52.490;13.410;2023-11-19T08:52:02;12.60;97.10
19256;DHT22;9762;52.490;13.410;2023-11-19T08:54:28;12.60;97.20
19256;DHT22;9762;52.490;13.410;2023-11-19T08:56:53;12.60;97.30
19256;DHT22;9762;52.490;13.410;2023-11-19T08:59:19;12.60;97.40
19256;DHT22;9762;52.490;13.410;2023-11-19T09:01:45;12.70;97.50
19256;DHT22;9762;52.490;13.410;2023-11-19T09:04:11;12.70;97.40
19256;DHT22;9762;52.490;13.410;2023-11-19T09:06:36;12.80;97.40
19256;DHT22;9762;52.490;13.410;2023-11-19T09:09:02;12.80;97.30
19256;DHT22;9762;52.490;13.410;2023-11-19T09:11:29;12.80;97.30
19256;DHT22;9762;52.490;13.410;2023-11-19T09:13:55;12.90;97.30
19256;DHT22;9762;52.490;13.410;2023-11-19T09:16:20;12.90;97.40
19256;DHT22;9762;52.490;13.410;2023-11-19T09:18:47;13.00;97.50
19256;DHT22;9762;52.490;13.410;2023-11-19T09:21:12;13.00;97.60
19256;DHT22;9762;52.490;13.410;2023-11-19T09:23:38;12.90;98.00
19256;DHT22;9762;52.490;13.410;2023-11-19T09:26:10;12.90;98.30
19256;DHT22;9762;52.490;13.410;2023-11-19T09:28:36;12.80;98.80
19256;DHT22;9762;52.490;13.410;2023-11-19T09:31:02;12.80;98.80
19256;DHT22;9762;52.490;13.410;2023-11-19T09:33:30;12.90;98.80
19256;DHT22;9762;52.490;13.410;2023-11-19T09:35:56;12.90;99.10
19256;DHT22;9762;52.490;13.410;2023-11-19T09:38:22;13.00;99.20
19256;DHT22;9762;52.490;13.410;2023-11-19T09:40:48;13.10;99.20
19256;DHT22;9762;52.490;13.410;2023-11-19T09:43:15;13.20;99.20
19256;DHT22;9762;52.490;13.410;2023-11-19T09:45:48;13.20;99.20
19256;DHT22;9762;52.490;13.410;2023-11-19T09:48:18;13.20;99.30
19256;DHT22;9762;52.490;13.410;2023-11-19T09:50:47;13.20;99.30
19256;DHT22;9762;52.490;13.410;2023-11-19T09:53:15;13.30;99.40
19256;DHT22;9762;52.490;13.410;2023-11-19T09:55:41;13.40;99.50
19256;DHT22;9762;52.490;13.410;2023-11-19T09:58:07;13.40;99.90
19256;DHT22;9762;52.490;13.410;2023-11-19T10:00:34;13.50;99.70
19256;DHT22;9762;52.490;13.410;2023-11-19T10:03:00;13.60;99.90
19256;DHT22;9762;52.490;13.410;2023-11-19T10:05:26;13.60;99.90
19256;DHT22;9762;52.490;13.410;2023-11-19T10:07:55;13.70;99.90
19256;DHT22;9762;52.490;13.410;2023-11-19T10:10:21;13.80;99.90
19256;DHT22;9762;52.490;13.410;2023-11-19T10:12:47;13.90;99.90
19256;DHT22;9762;52.490;13.410;2023-11-19T10:15:20;13.90;99.90
19256;DHT22;9762;52.490;13.410;2023-11-19T10:17:46;13.90;99.80
19256;DHT22;9762;52.490;13.410;2023-11-19T10:20:12;13.90;99.90
19256;DHT22;9762;52.490;13.410;2023-11-19T10:22:38;14.00;99.90
19256;DHT22;9762;52.490;13.410;2023-11-19T10:25:04;14.10;99.90
19256;DHT22;9762;52.490;13.410;2023-11-19T10:27:30;14.10;99.90
19256;DHT22;9762;52.490;13.410;2023-11-19T10:29:59;14.10;99.90
19256;DHT22;9762;52.490;13.410;2023-11-19T10:32:25;14.10;99.90
19256;DHT22;9762;52.490;13.410;2023-11-19T10:34:51;14.20;99.90
19256;DHT22;9762;52.490;13.410;2023-11-19T10:37:29;14.30;99.90
19256;DHT22;9762;52.490;13.410;2023-11-19T10:39:57;14.40;99.90
19256;DHT22;9762;52.490;13.410;2023-11-19T10:42:23;14.40;99.90
19256;DHT22;9762;52.490;13.410;2023-11-19T10:44:49;14.40;99.90
19256;DHT22;9762;52.490;13.410;2023-11-19T10:47:15;14.40;99.90
19256;DHT22;9762;52.490;13.410;2023-11-19T10:49:44;14.50;99.90
19256;DHT22;9762;52.490;13.410;2023-11-19T10:52:12;14.60;99.90
19256;DHT22;9762;52.490;13.410;2023-11-19T10:54:43;14.60;99.90
19256;DHT22;9762;52.490;13.410;2023-11-19T10:57:09;14.70;99.90
19256;DHT22;9762;52.490;13.410;2023-11-19T10:59:40;14.80;99.90
19256;DHT22;9762;52.490;13.410;2023-11-19T11:02:09;14.90;99.90
19256;DHT22;9762;52.490;13.410;2023-11-19T11:04:39;15.00;99.90
19256;DHT22;9762;52.490;13.410;2023-11-19T11:07:05;15.00;99.90
19256;DHT22;9762;52.490;13.410;2023-11-19T11:09:32;15.10;99.90
19256;DHT22;9762;52.490;13.410;2023-11-19T11:11:59;15.10;99.90
19256;DHT22;9762;52.490;13.410;2023-11-19T11:14:25;15.10;99.90
19256;DHT22;9762;52.490;13.410;2023-11-19T11:16:53;15.20;99.70
19256;DHT22;9762;52.490;13.410;2023-11-19T11:19:19;15.20;99.40
19256;DHT22;9762;52.490;13.410;2023-11-19T11:21:49;15.20;99.30
19256;DHT22;9762;52.490;13.410;2023-11-19T11:27:20;15.30;99.10
19256;DHT22;9762;52.490;13.410;2023-11-19T11:35:42;15.40;99.00
19256;DHT22;9762;52.490;13.410;2023-11-19T11:38:14;15.40;98.90
19256;DHT22;9762;52.490;13.410;2023-11-19T11:40:40;15.50;98.80
19256;DHT22;9762;52.490;13.410;2023-11-19T11:43:47;15.50;98.90
19256;DHT22;9762;52.490;13.410;2023-11-19T11:48:58;15.60;98.60
19256;DHT22;9762;52.490;13.410;2023-11-19T11:57:01;15.70;98.70
19256;DHT22;9762;52.490;13.410;2023-11-19T12:02:08;15.90;98.40
19256;DHT22;9762;52.490;13.410;2023-11-19T12:04:35;15.90;98.00
19256;DHT22;9762;52.490;13.410;2023-11-19T12:07:15;15.90;97.90
19256;DHT22;9762;52.490;13.410;2023-11-19T12:09:41;16.00;97.80
19256;DHT22;9762;52.490;13.410;2023-11-19T12:15:03;16.00;97.60
19256;DHT22;9762;52.490;13.410;2023-11-19T12:20:05;16.00;97.60
19256;DHT22;9762;52.490;13.410;2023-11-19T12:22:41;16.00;97.40
19256;DHT22;9762;52.490;13.410;2023-11-19T12:25:08;16.00;97.40
19256;DHT22;9762;52.490;13.410;2023-11-19T12:27:35;16.00;97.40
19256;DHT22;9762;52.490;13.410;2023-11-19T12:30:04;16.00;97.10
19256;DHT22;9762;52.490;13.410;2023-11-19T12:32:43;16.00;97.10
19256;DHT22;9762;52.490;13.410;2023-11-19T12:35:10;16.00;97.20
19256;DHT22;9762;52.490;13.410;2023-11-19T12:37:43;16.00;97.30
19256;DHT22;9762;52.490;13.410;2023-11-19T12:40:16;16.00;97.30
19256;DHT22;9762;52.490;13.410;2023-11-19T12:42:43;16.00;97.30
19256;DHT22;9762;52.490;13.410;2023-11-19T12:45:09;16.00;97.20
19256;DHT22;9762;52.490;13.410;2023-11-19T12:47:36;16.00;97.20
19256;DHT22;9762;52.490;13.410;2023-11-19T12:50:02;16.00;97.40
19256;DHT22;9762;52.490;13.410;2023-11-19T12:52:30;16.10;97.30
19256;DHT22;9762;52.490;13.410;2023-11-19T12:54:55;16.10;97.30
19256;DHT22;9762;52.490;13.410;2023-11-19T12:57:38;16.10;97.20
19256;DHT22;9762;52.490;13.410;2023-11-19T13:00:05;16.00;96.90
19256;DHT22;9762;52.490;13.410;2023-11-19T13:02:51;16.00;96.80
19256;DHT22;9762;52.490;13.410;2023-11-19T13:05:28;16.10;96.90
19256;DHT22;9762;52.490;13.410;2023-11-19T13:08:06;16.10;96.80
19256;DHT22;9762;52.490;13.410;2023-11-19T13:10:33;16.00;96.60
19256;DHT22;9762;52.490;13.410;2023-11-19T13:13:08;16.10;96.60
19256;DHT22;9762;52.490;13.410;2023-11-19T13:15:35;16.10;96.40
19256;DHT22;9762;52.490;13.410;2023-11-19T13:18:01;16.10;96.40
19256;DHT22;9762;52.490;13.410;2023-11-19T13:20:28;16.10;96.40
19256;DHT22;9762;52.490;13.410;2023-11-19T13:23:02;16.10;96.20
19256;DHT22;9762;52.490;13.410;2023-11-19T13:25:29;16.10;96.00
19256;DHT22;9762;52.490;13.410;2023-11-19T13:27:55;16.10;96.10
19256;DHT22;9762;52.490;13.410;2023-11-19T13:30:22;16.10;96.00
19256;DHT22;9762;52.490;13.410;2023-11-19T13:32:48;16.00;96.00
19256;DHT22;9762;52.490;13.410;2023-11-19T13:35:15;16.00;96.00
19256;DHT22;9762;52.490;13.410;2023-11-19T13:37:40;16.00;96.00
19256;DHT22;9762;52.490;13.410;2023-11-19T13:40:07;16.00;96.20
19256;DHT22;9762;52.490;13.410;2023-11-19T13:42:36;16.00;96.00
19256;DHT22;9762;52.490;13.410;2023-11-19T13:45:02;16.10;96.00
19256;DHT22;9762;52.490;13.410;2023-11-19T13:47:28;16.10;96.00
19256;DHT22;9762;52.490;13.410;2023-11-19T13:49:54;16.10;96.20
19256;DHT22;9762;52.490;13.410;2023-11-19T13:52:19;16.10;96.30
19256;DHT22;9762;52.490;13.410;2023-11-19T13:54:45;16.10;96.20
19256;DHT22;9762;52.490;13.410;2023-11-19T13:57:11;16.20;96.20
19256;DHT22;9762;52.490;13.410;2023-11-19T13:59:39;16.20;96.00
19256;DHT22;9762;52.490;13.410;2023-11-19T14:02:06;16.10;95.90
19256;DHT22;9762;52.490;13.410;2023-11-19T14:04:33;16.10;96.00
19256;DHT22;9762;52.490;13.410;2023-11-19T14:06:58;16.10;96.00
19256;DHT22;9762;52.490;13.410;2023-11-19T14:09:24;16.20;96.10
19256;DHT22;9762;52.490;13.410;2023-11-19T14:11:50;16.20;96.00
19256;DHT22;9762;52.490;13.410;2023-11-19T14:14:16;16.20;96.00
19256;DHT22;9762;52.490;13.410;2023-11-19T14:16:42;16.20;96.10
19256;DHT22;9762;52.490;13.410;2023-11-19T14:19:08;16.20;96.10
19256;DHT22;9762;52.490;13.410;2023-11-19T14:21:33;16.20;96.20
19256;DHT22;9762;52.490;13.410;2023-11-19T14:23:59;16.20;96.20
19256;DHT22;9762;52.490;13.410;2023-11-19T14:26:25;16.20;96.10
19256;DHT22;9762;52.490;13.410;2023-11-19T14:28:51;16.20;96.00
19256;DHT22;9762;52.490;13.410;2023-11-19T14:31:16;16.20;95.90
19256;DHT22;9762;52.490;13.410;2023-11-19T14:33:42;16.10;96.00
19256;DHT22;9762;52.490;13.410;2023-11-19T14:36:08;16.10;96.00
19256;DHT22;9762;52.490;13.410;2023-11-19T14:38:34;16.10;95.90
19256;DHT22;9762;52.490;13.410;2023-11-19T14:40:59;16.10;95.80
19256;DHT22;9762;52.490;13.410;2023-11-19T14:43:25;16.10;95.90
19256;DHT22;9762;52.490;13.410;2023-11-19T14:45:51;16.10;95.70
19256;DHT22;9762;52.490;13.410;2023-11-19T14:48:17;16.00;95.80
19256;DHT22;9762;52.490;13.410;2023-11-19T14:50:43;16.00;95.90
19256;DHT22;9762;52.490;13.410;2023-11-19T14:53:10;16.00;95.90
19256;DHT22;9762;52.490;13.410;2023-11-19T14:55:36;16.00;95.90
19256;DHT22;9762;52.490;13.410;2023-11-19T14:58:03;16.00;95.90
19256;DHT22;9762;52.490;13.410;2023-11-19T15:00:29;15.90;95.80
19256;DHT22;9762;52.490;13.410;2023-11-19T15:02:55;15.90;95.70
19256;DHT22;9762;52.490;13.410;2023-11-19T15:05:21;15.90;95.80
19256;DHT22;9762;52.490;13.410;2023-11-19T15:07:47;15.90;95.80
19256;DHT22;9762;52.490;13.410;2023-11-19T15:10:13;15.90;95.90
19256;DHT22;9762;52.490;13.410;2023-11-19T15:12:39;15.90;96.00
19256;DHT22;9762;52.490;13.410;2023-11-19T15:15:10;15.90;96.20
19256;DHT22;9762;52.490;13.410;2023-11-19T15:17:38;15.90;96.40
19256;DHT22;9762;52.490;13.410;2023-11-19T15:20:05;15.90;96.30
19256;DHT22;9762;52.490;13.410;2023-11-19T15:22:30;15.90;96.30
19256;DHT22;9762;52.490;13.410;2023-11-19T15:24:57;15.90;96.40
19256;DHT22;9762;52.490;13.410;2023-11-19T15:27:22;15.90;96.30
19256;DHT22;9762;52.490;13.410;2023-11-19T15:29:48;15.90;96.10
19256;DHT22;9762;52.490;13.410;2023-11-19T15:32:14;15.90;96.10
19256;DHT22;9762;52.490;13.410;2023-11-19T15:34:39;15.90;96.10
19256;DHT22;9762;52.490;13.410;2023-11-19T15:37:09;15.90;96.30
19256;DHT22;9762;52.490;13.410;2023-11-19T15:39:38;15.90;96.40
19256;DHT22;9762;52.490;13.410;2023-11-19T15:42:04;15.90;96.50
19256;DHT22;9762;52.490;13.410;2023-11-19T15:44:29;15.90;96.40
19256;DHT22;9762;52.490;13.410;2023-11-19T15:46:55;15.90;96.30
19256;DHT22;9762;52.490;13.410;2023-11-19T15:49:21;15.90;96.40
19256;DHT22;9762;52.490;13.410;2023-11-19T15:51:47;15.90;96.50
19256;DHT22;9762;52.490;13.410;2023-11-19T15:54:12;15.80;96.70
19256;DHT22;9762;52.490;13.410;2023-11-19T15:56:38;15.80;96.70